Time;durP1;ratioP1;P1;durP2;ratioP2;P2;SDS_P1;SDS_P2;PMS_P1;PMS_P2;Temp;Humidity;BMP_temperature;BMP_pressure;BME280_temperature;BME280_humidity;BME280_pressure;Samples;Min_cycle;Max_cycle;Signal;HPM_P1;HPM_P2
2024/02/18 00:00:44;;;;;;;3.80;3.50;;;16.50;1.00;;;;;;2612884;39;20805;-63
2024/02/18 00:03:10;;;;;;;4.27;3.20;;;16.60;1.00;;;;;;2612565;46;20217;-63
2024/02/18 00:05:35;;;;;;;4.13;3.57;;;16.50;1.00;;;;;;2612006;39;20601;-64
2024/02/18 00:08:02;;;;;;;3.80;3.50;;;16.60;1.00;;;;;;2612235;54;20163;-64
2024/02/18 00:10:27;;;;;;;3.50;3.30;;;16.60;1.00;;;;;;2612951;54;20163;-64
2024/02/18 00:12:53;;;;;;;3.60;3.30;;;16.50;1.00;;;;;;2612984;54;20448;-64
2024/02/18 00:15:19;;;;;;;4.00;3.70;;;16.60;1.00;;;;;;2613023;47;20168;-60
2024/02/18 00:17:44;;;;;;;3.50;3.30;;;16.60;1.00;;;;;;2611809;54;20157;-60
2024/02/18 00:20:11;;;;;;;4.53;3.40;;;16.60;1.00;;;;;;2613393;54;20178;-60
2024/02/18 00:22:39;;;;;;;4.00;3.50;;;16.50;1.00;;;;;;2613117;47;20173;-60
2024/02/18 00:25:08;;;;;;;3.57;3.27;;;16.60;1.00;;;;;;2612407;54;21035;-63
2024/02/18 00:27:34;;;;;;;3.83;3.30;;;16.50;1.00;;;;;;2612720;54;20391;-63
2024/02/18 00:30:00;;;;;;;3.63;3.30;;;16.60;1.00;;;;;;2613481;39;20874;-64
2024/02/18 00:32:26;;;;;;;3.50;3.20;;;16.50;1.00;;;;;;2611893;54;20960;-63
2024/02/18 00:34:52;;;;;;;3.33;3.13;;;16.60;1.00;;;;;;2612754;39;20760;-63
2024/02/18 00:37:20;;;;;;;4.00;3.60;;;16.60;1.00;;;;;;2612018;54;20163;-63
2024/02/18 00:39:46;;;;;;;4.40;4.00;;;16.60;1.00;;;;;;2612776;54;20162;-63
2024/02/18 00:42:11;;;;;;;3.43;3.20;;;16.60;1.00;;;;;;2613272;54;20434;-64
2024/02/18 00:44:37;;;;;;;3.67;3.37;;;16.60;1.00;;;;;;2612365;54;20676;-59
2024/02/18 00:47:04;;;;;;;3.10;2.80;;;16.60;1.00;;;;;;2613385;54;20640;-60
2024/02/18 00:49:31;;;;;;;3.27;2.97;;;16.60;1.00;;;;;;2612279;54;20170;-58
2024/02/18 00:51:57;;;;;;;4.40;3.50;;;16.50;1.00;;;;;;2612965;54;20453;-59
2024/02/18 00:54:23;;;;;;;4.10;3.40;;;16.60;1.00;;;;;;2612598;51;20434;-59
2024/02/18 00:56:50;;;;;;;3.50;3.20;;;16.60;1.00;;;;;;2612913;46;20550;-60
2024/02/18 00:59:16;;;;;;;3.70;3.33;;;16.60;1.00;;;;;;2612137;54;20174;-59
2024/02/18 01:01:42;;;;;;;3.80;3.50;;;16.60;1.00;;;;;;2613098;54;20410;-59
2024/02/18 01:04:08;;;;;;;4.20;3.90;;;16.50;1.00;;;;;;2612960;54;20422;-58
2024/02/18 01:06:34;;;;;;;3.23;2.93;;;16.50;1.00;;;;;;2613898;54;20853;-59
2024/02/18 01:09:00;;;;;;;4.60;3.57;;;16.50;1.00;;;;;;2613933;54;20408;-59
2024/02/18 01:11:26;;;;;;;3.83;3.53;;;16.60;1.00;;;;;;2613035;39;20612;-60
2024/02/18 01:13:51;;;;;;;3.27;2.97;;;16.60;1.00;;;;;;2613501;54;20600;-60
2024/02/18 01:16:17;;;;;;;3.60;3.00;;;16.60;1.00;;;;;;2611770;54;20166;-59
2024/02/18 01:18:43;;;;;;;3.43;2.70;;;16.60;1.00;;;;;;2613206;54;20167;-59
2024/02/18 01:21:09;;;;;;;3.33;3.03;;;16.50;1.00;;;;;;2613720;54;20657;-60
2024/02/18 01:23:36;;;;;;;4.17;3.87;;;16.60;1.00;;;;;;2613133;54;20854;-60
2024/02/18 01:26:03;;;;;;;3.40;3.00;;;16.60;1.00;;;;;;2614489;39;20981;-58
2024/02/18 01:28:28;;;;;;;3.40;3.10;;;16.50;1.00;;;;;;2611933;54;20420;-58
2024/02/18 01:30:54;;;;;;;5.60;3.47;;;16.50;1.00;;;;;;2613053;54;20513;-58
2024/02/18 01:33:21;;;;;;;3.67;3.37;;;16.60;1.00;;;;;;2612997;54;20164;-58
2024/02/18 01:35:46;;;;;;;3.03;2.83;;;16.60;1.00;;;;;;2613653;54;20167;-58
2024/02/18 01:38:12;;;;;;;2.63;2.43;;;16.60;1.00;;;;;;2613228;54;20459;-58
2024/02/18 01:40:38;;;;;;;3.10;2.80;;;16.60;1.00;;;;;;2613677;54;20763;-58
2024/02/18 01:43:04;;;;;;;5.70;3.40;;;16.50;1.00;;;;;;2612026;54;20154;-58
2024/02/18 01:45:30;;;;;;;3.30;3.10;;;16.50;1.00;;;;;;2613886;54;20433;-58
2024/02/18 01:47:56;;;;;;;3.20;2.90;;;16.60;1.00;;;;;;2613197;54;21107;-59
2024/02/18 01:50:23;;;;;;;3.13;2.87;;;16.50;1.00;;;;;;2613531;54;20188;-58
2024/02/18 01:52:51;;;;;;;3.40;3.10;;;16.50;1.00;;;;;;2613283;54;20384;-57
2024/02/18 01:55:17;;;;;;;3.30;3.00;;;16.50;1.00;;;;;;2613312;54;20522;-74
2024/02/18 01:57:44;;;;;;;3.73;3.40;;;16.60;1.00;;;;;;2613317;54;20416;-75
2024/02/18 02:00:14;;;;;;;2.47;2.27;;;16.50;1.00;;;;;;2612800;54;20407;-75
2024/02/18 02:02:42;;;;;;;3.27;3.07;;;16.50;1.00;;;;;;2613592;51;20434;-74
2024/02/18 02:05:11;;;;;;;4.30;3.57;;;16.60;1.00;;;;;;2613246;54;20410;-75
2024/02/18 02:07:37;;;;;;;3.50;3.20;;;16.50;1.00;;;;;;2613120;47;20469;-74
2024/02/18 02:10:04;;;;;;;2.87;2.67;;;16.50;1.00;;;;;;2613626;39;20839;-73
2024/02/18 02:12:34;;;;;;;3.10;2.80;;;16.60;1.00;;;;;;2613581;54;20406;-75
2024/02/18 02:15:00;;;;;;;3.40;3.10;;;16.50;1.00;;;;;;2614106;54;20488;-75
2024/02/18 02:17:26;;;;;;;2.60;2.40;;;16.60;1.00;;;;;;2613881;47;20435;-75
2024/02/18 02:19:52;;;;;;;3.47;3.00;;;16.60;1.00;;;;;;2613464;47;20206;-74
2024/02/18 02:22:18;;;;;;;3.57;3.27;;;16.50;1.00;;;;;;2614053;54;20414;-74
2024/02/18 02:24:43;;;;;;;4.23;3.20;;;16.50;1.00;;;;;;2612830;54;20164;-74
2024/02/18 02:27:13;;;;;;;3.20;3.00;;;16.50;1.00;;;;;;2614162;47;20177;-74
2024/02/18 02:29:40;;;;;;;5.80;3.07;;;16.60;1.00;;;;;;2613177;54;20144;-75
2024/02/18 02:32:06;;;;;;;2.80;2.60;;;16.60;1.00;;;;;;2614028;54;20451;-74
2024/02/18 02:34:32;;;;;;;3.37;3.07;;;16.50;1.00;;;;;;2614283;47;20546;-63
2024/02/18 02:36:57;;;;;;;3.00;2.70;;;16.50;1.00;;;;;;2613127;54;20166;-63
2024/02/18 02:39:24;;;;;;;4.27;3.23;;;16.50;1.00;;;;;;2613344;54;20261;-64
2024/02/18 02:41:49;;;;;;;2.90;2.70;;;16.60;1.00;;;;;;2612257;54;20695;-63
2024/02/18 02:44:15;;;;;;;3.73;3.43;;;16.50;1.00;;;;;;2612907;54;20420;-58
2024/02/18 02:46:40;;;;;;;3.20;2.90;;;16.60;1.00;;;;;;2613023;54;20151;-58
2024/02/18 02:49:06;;;;;;;3.23;2.93;;;16.60;1.00;;;;;;2612769;54;20194;-57
2024/02/18 02:51:32;;;;;;;3.13;2.93;;;16.60;1.00;;;;;;2613797;54;20159;-59
2024/02/18 02:53:57;;;;;;;3.60;3.10;;;16.50;1.00;;;;;;2613026;54;20164;-58
2024/02/18 02:56:23;;;;;;;3.53;3.23;;;16.60;1.00;;;;;;2612274;54;20176;-59
2024/02/18 02:58:49;;;;;;;4.03;3.70;;;16.50;1.00;;;;;;2613214;54;20165;-58
2024/02/18 03:01:14;;;;;;;5.00;3.10;;;16.50;1.00;;;;;;2613214;54;20198;-58
2024/02/18 03:03:40;;;;;;;3.43;3.13;;;16.50;1.00;;;;;;2613434;47;20163;-73
2024/02/18 03:06:06;;;;;;;3.33;3.03;;;16.50;1.00;;;;;;2612384;47;20171;-63
2024/02/18 03:08:32;;;;;;;3.97;3.67;;;16.60;1.00;;;;;;2612764;54;20178;-64
2024/02/18 03:10:58;;;;;;;3.47;3.17;;;16.50;1.00;;;;;;2613318;54;20415;-64
2024/02/18 03:13:23;;;;;;;3.00;2.80;;;16.50;1.00;;;;;;2613123;54;20518;-63
2024/02/18 03:15:49;;;;;;;3.37;3.07;;;16.50;1.00;;;;;;2613418;39;20549;-64
2024/02/18 03:18:15;;;;;;;4.07;3.17;;;16.50;1.00;;;;;;2612722;54;20155;-64
2024/02/18 03:20:41;;;;;;;2.93;2.70;;;16.60;1.00;;;;;;2612704;54;20178;-64
2024/02/18 03:23:07;;;;;;;3.20;2.90;;;16.50;1.00;;;;;;2612673;54;20168;-64
2024/02/18 03:25:34;;;;;;;3.50;3.20;;;16.60;1.00;;;;;;2613254;54;20507;-63
2024/02/18 03:28:00;;;;;;;3.40;3.10;;;16.60;1.00;;;;;;2612823;39;20783;-63
2024/02/18 03:30:27;;;;;;;2.87;2.57;;;16.50;1.00;;;;;;2613019;54;20427;-63
2024/02/18 03:32:53;;;;;;;3.03;2.83;;;16.60;1.00;;;;;;2613057;54;20449;-63
2024/02/18 03:35:19;;;;;;;3.43;2.93;;;16.60;1.00;;;;;;2612711;54;20396;-63
2024/02/18 03:37:45;;;;;;;3.20;3.00;;;16.50;1.00;;;;;;2612465;54;20508;-64
2024/02/18 03:40:12;;;;;;;2.80;2.60;;;16.50;1.00;;;;;;2613192;54;20960;-64
2024/02/18 03:42:37;;;;;;;3.30;3.00;;;16.50;1.00;;;;;;2612354;54;20198;-63
2024/02/18 03:45:03;;;;;;;3.13;2.93;;;16.60;1.00;;;;;;2613190;47;20523;-60
2024/02/18 03:47:29;;;;;;;3.43;3.13;;;16.50;1.00;;;;;;2612816;54;20200;-60
2024/02/18 03:49:55;;;;;;;3.20;2.70;;;16.50;1.00;;;;;;2613064;54;20420;-60
2024/02/18 03:52:21;;;;;;;3.87;3.57;;;16.50;1.00;;;;;;2612966;47;20197;-60
2024/02/18 03:54:46;;;;;;;2.40;2.30;;;16.50;1.00;;;;;;2612529;54;20430;-64
2024/02/18 03:57:12;;;;;;;3.07;2.70;;;16.50;1.00;;;;;;2612903;47;20189;-64
2024/02/18 03:59:37;;;;;;;5.10;3.20;;;16.60;1.00;;;;;;2612439;54;20169;-64
2024/02/18 04:02:03;;;;;;;3.63;3.33;;;16.50;1.00;;;;;;2613240;54;20154;-64
2024/02/18 04:04:29;;;;;;;2.90;2.70;;;16.50;1.00;;;;;;2611739;54;20173;-63
2024/02/18 04:06:54;;;;;;;3.10;2.90;;;16.60;1.00;;;;;;2613210;39;20694;-63
2024/02/18 04:09:20;;;;;;;2.87;2.67;;;16.50;1.00;;;;;;2612558;54;20173;-63
2024/02/18 04:11:46;;;;;;;3.40;3.10;;;16.50;1.00;;;;;;2612862;54;20165;-63
2024/02/18 04:14:12;;;;;;;3.20;2.90;;;16.60;1.00;;;;;;2612794;47;20202;-59
2024/02/18 04:16:37;;;;;;;3.50;3.20;;;16.50;1.00;;;;;;2613349;39;20528;-59
2024/02/18 04:19:03;;;;;;;3.40;3.20;;;16.50;1.00;;;;;;2612598;54;20392;-59
2024/02/18 04:21:28;;;;;;;3.33;3.03;;;16.60;1.00;;;;;;2612428;54;20213;-59
2024/02/18 04:23:54;;;;;;;2.90;2.70;;;16.50;1.00;;;;;;2612682;47;20166;-59
2024/02/18 04:26:20;;;;;;;3.60;3.30;;;16.50;1.00;;;;;;2612615;54;20158;-58
2024/02/18 04:28:45;;;;;;;2.90;2.70;;;16.50;1.00;;;;;;2611999;47;20165;-58
2024/02/18 04:31:11;;;;;;;3.50;2.90;;;16.50;1.00;;;;;;2612267;54;20151;-60
2024/02/18 04:33:37;;;;;;;3.40;3.10;;;16.50;1.00;;;;;;2612563;54;20722;-59
2024/02/18 04:36:03;;;;;;;3.50;3.20;;;16.60;1.00;;;;;;2613560;39;20576;-60
2024/02/18 04:38:29;;;;;;;2.70;2.50;;;16.50;1.00;;;;;;2613514;54;20408;-59
2024/02/18 04:40:54;;;;;;;3.13;2.87;;;16.50;1.00;;;;;;2613380;54;20423;-59
2024/02/18 04:43:20;;;;;;;3.23;3.00;;;16.60;1.00;;;;;;2613569;54;20170;-59
2024/02/18 04:45:46;;;;;;;3.00;2.80;;;16.50;1.00;;;;;;2613090;54;20242;-59
2024/02/18 04:48:12;;;;;;;3.40;3.10;;;16.50;1.00;;;;;;2613397;47;20194;-59
2024/02/18 04:50:38;;;;;;;3.00;2.80;;;16.50;1.00;;;;;;2613337;54;20522;-59
2024/02/18 04:53:04;;;;;;;2.83;2.53;;;16.50;1.00;;;;;;2613410;54;20172;-59
2024/02/18 04:55:30;;;;;;;3.37;3.07;;;16.50;1.00;;;;;;2613002;46;20163;-63
2024/02/18 04:57:55;;;;;;;2.97;2.77;;;16.50;1.00;;;;;;2613009;54;20446;-64
2024/02/18 05:00:21;;;;;;;3.27;2.97;;;16.50;1.00;;;;;;2613574;54;20154;-63
2024/02/18 05:02:47;;;;;;;3.10;2.80;;;16.50;1.00;;;;;;2612544;51;20573;-63
2024/02/18 05:05:13;;;;;;;3.03;2.73;;;16.50;1.00;;;;;;2613218;54;20161;-61
2024/02/18 05:07:39;;;;;;;2.70;2.50;;;16.50;1.00;;;;;;2613201;54;20693;-60
2024/02/18 05:10:06;;;;;;;2.83;2.63;;;16.50;1.00;;;;;;2613137;54;20965;-61
2024/02/18 05:12:32;;;;;;;3.07;2.80;;;16.50;1.00;;;;;;2613928;54;20517;-61
2024/02/18 05:14:58;;;;;;;2.83;2.63;;;16.50;1.00;;;;;;2612941;54;20410;-61
2024/02/18 05:17:23;;;;;;;2.87;2.67;;;16.50;1.00;;;;;;2613000;54;20178;-61
2024/02/18 05:19:51;;;;;;;3.03;2.83;;;16.50;1.00;;;;;;2613820;54;20979;-61
2024/02/18 05:22:18;;;;;;;3.60;2.70;;;16.50;1.00;;;;;;2613567;39;20572;-62
2024/02/18 05:24:45;;;;;;;3.27;2.97;;;16.50;1.00;;;;;;2613182;54;20415;-58
2024/02/18 05:27:11;;;;;;;2.73;2.53;;;16.50;1.00;;;;;;2613516;39;20955;-59
2024/02/18 05:29:37;;;;;;;3.17;2.80;;;16.50;1.00;;;;;;2612564;54;20410;-58
2024/02/18 05:32:04;;;;;;;2.37;2.13;;;16.50;1.00;;;;;;2613847;54;20185;-59
2024/02/18 05:34:29;;;;;;;3.00;2.80;;;16.50;1.00;;;;;;2613683;54;20174;-59
2024/02/18 05:36:55;;;;;;;2.53;2.33;;;16.50;1.00;;;;;;2613678;54;20418;-58
2024/02/18 05:39:20;;;;;;;2.53;2.33;;;16.50;1.00;;;;;;2613253;50;20181;-59
2024/02/18 05:41:46;;;;;;;2.93;2.73;;;16.50;1.00;;;;;;2613105;54;20170;-59
2024/02/18 05:44:12;;;;;;;2.57;2.37;;;16.50;1.00;;;;;;2613119;54;20154;-59
2024/02/18 05:46:37;;;;;;;2.60;2.40;;;16.50;1.00;;;;;;2613379;54;20164;-58
2024/02/18 05:49:04;;;;;;;3.07;2.87;;;16.50;1.00;;;;;;2612407;54;20320;-59
2024/02/18 05:51:31;;;;;;;3.07;2.87;;;16.50;1.00;;;;;;2614003;39;20606;-58
2024/02/18 05:53:57;;;;;;;2.67;2.47;;;16.50;1.00;;;;;;2613457;47;20949;-58
2024/02/18 05:56:23;;;;;;;2.53;2.33;;;16.50;1.00;;;;;;2613023;54;20481;-59
2024/02/18 05:58:49;;;;;;;2.70;2.50;;;16.50;1.00;;;;;;2612511;54;20431;-58
2024/02/18 06:01:15;;;;;;;2.30;2.10;;;16.50;1.00;;;;;;2611499;54;20966;-58
2024/02/18 06:03:40;;;;;;;2.50;2.30;;;16.50;1.00;;;;;;2612559;54;20161;-64
2024/02/18 06:06:06;;;;;;;2.90;2.70;;;16.50;1.00;;;;;;2612377;54;20142;-63
2024/02/18 06:08:32;;;;;;;2.60;2.40;;;16.50;1.00;;;;;;2612791;53;21015;-64
2024/02/18 06:10:58;;;;;;;2.80;2.60;;;16.50;1.00;;;;;;2611785;54;20720;-64
2024/02/18 06:13:24;;;;;;;2.90;2.70;;;16.50;1.00;;;;;;2612573;47;20414;-63
2024/02/18 06:15:50;;;;;;;2.47;2.27;;;16.50;1.00;;;;;;2613063;39;20662;-61
2024/02/18 06:18:16;;;;;;;3.00;2.67;;;16.50;1.00;;;;;;2612067;47;20256;-60
2024/02/18 06:20:42;;;;;;;2.93;2.67;;;16.50;1.00;;;;;;2612589;47;20433;-62
2024/02/18 06:23:07;;;;;;;2.40;2.20;;;16.50;1.00;;;;;;2612504;54;20194;-61
2024/02/18 06:25:37;;;;;;;2.60;2.40;;;16.50;1.00;;;;;;2612622;54;20155;-62
2024/02/18 06:28:09;;;;;;;3.07;2.70;;;16.50;1.00;;;;;;2613075;39;20588;-61
2024/02/18 06:30:38;;;;;;;2.47;2.33;;;16.50;1.00;;;;;;2612054;54;20411;-60
2024/02/18 06:33:06;;;;;;;2.50;2.30;;;16.50;1.00;;;;;;2612176;51;20415;-62
2024/02/18 06:35:31;;;;;;;2.70;2.50;;;16.50;1.00;;;;;;2612952;54;20423;-75
2024/02/18 06:37:57;;;;;;;2.60;2.40;;;16.50;1.00;;;;;;2612436;54;20428;-74
2024/02/18 06:40:25;;;;;;;2.63;2.43;;;16.50;1.00;;;;;;2612970;47;20165;-75
2024/02/18 06:42:51;;;;;;;2.03;1.87;;;16.50;1.00;;;;;;2612568;54;20685;-75
2024/02/18 06:45:16;;;;;;;2.90;2.67;;;16.50;1.00;;;;;;2612536;54;20513;-75
2024/02/18 06:47:42;;;;;;;2.50;2.30;;;16.50;1.00;;;;;;2612764;54;20841;-74
2024/02/18 06:50:08;;;;;;;2.00;1.90;;;16.50;1.00;;;;;;2613169;47;20171;-74
2024/02/18 06:52:34;;;;;;;2.33;2.13;;;16.50;1.00;;;;;;2613359;39;20511;-74
2024/02/18 06:54:59;;;;;;;2.57;2.37;;;16.50;1.00;;;;;;2613070;54;20395;-74
2024/02/18 06:57:25;;;;;;;2.67;2.47;;;16.50;1.00;;;;;;2612426;54;20499;-75
2024/02/18 06:59:51;;;;;;;2.83;2.63;;;16.50;1.00;;;;;;2612224;54;20179;-75
2024/02/18 07:02:16;;;;;;;2.47;2.27;;;16.50;1.00;;;;;;2611799;54;20155;-75
2024/02/18 07:04:42;;;;;;;2.17;2.07;;;16.50;1.00;;;;;;2613201;54;20258;-74
2024/02/18 07:07:08;;;;;;;5.20;2.50;;;16.50;1.00;;;;;;2612935;54;20156;-74
2024/02/18 07:09:33;;;;;;;2.40;2.20;;;16.50;1.00;;;;;;2612156;54;20172;-74
2024/02/18 07:11:59;;;;;;;2.60;2.40;;;16.50;1.00;;;;;;2612456;54;20174;-74
2024/02/18 07:14:25;;;;;;;2.50;2.30;;;16.50;1.00;;;;;;2612786;39;20583;-64
2024/02/18 07:16:50;;;;;;;2.60;2.40;;;16.50;1.00;;;;;;2612431;47;20275;-65
2024/02/18 07:19:16;;;;;;;2.50;2.30;;;16.50;1.00;;;;;;2611528;54;20168;-65
2024/02/18 07:21:42;;;;;;;3.03;2.73;;;16.50;1.00;;;;;;2612015;54;20594;-66
2024/02/18 07:24:07;;;;;;;2.47;2.27;;;16.50;1.00;;;;;;2612204;54;20439;-63
2024/02/18 07:26:33;;;;;;;2.63;2.43;;;16.50;1.00;;;;;;2611648;54;20694;-64
2024/02/18 07:28:59;;;;;;;2.20;2.00;;;16.50;1.00;;;;;;2611774;54;20192;-64
2024/02/18 07:31:24;;;;;;;2.43;2.23;;;16.50;1.00;;;;;;2612097;54;20159;-64
2024/02/18 07:33:50;;;;;;;2.30;2.20;;;16.50;1.00;;;;;;2612600;54;20150;-64
2024/02/18 07:36:16;;;;;;;2.50;2.30;;;16.50;1.00;;;;;;2611679;54;20166;-64
2024/02/18 07:38:41;;;;;;;2.40;2.20;;;16.50;1.00;;;;;;2612312;54;20193;-64
2024/02/18 07:41:07;;;;;;;2.60;2.40;;;16.50;1.00;;;;;;2612427;54;20188;-64
2024/02/18 07:43:32;;;;;;;2.00;1.87;;;16.50;1.00;;;;;;2611620;54;20153;-64
2024/02/18 07:45:58;;;;;;;2.50;2.30;;;16.40;1.00;;;;;;2612357;54;20157;-61
2024/02/18 07:48:24;;;;;;;2.50;2.30;;;16.50;1.00;;;;;;2611074;47;20702;-60
2024/02/18 07:50:49;;;;;;;2.40;2.20;;;16.50;1.00;;;;;;2611874;54;20169;-60
2024/02/18 07:53:15;;;;;;;2.10;1.90;;;16.50;1.00;;;;;;2612390;39;20521;-61
2024/02/18 07:55:40;;;;;;;2.70;2.50;;;16.50;1.00;;;;;;2612196;54;20155;-60
2024/02/18 07:58:06;;;;;;;3.40;2.73;;;16.50;1.00;;;;;;2612219;54;20164;-60
2024/02/18 08:00:32;;;;;;;2.60;2.40;;;16.50;1.00;;;;;;2612401;54;20151;-61
2024/02/18 08:02:57;;;;;;;2.30;2.10;;;16.50;1.00;;;;;;2611817;54;20282;-60
2024/02/18 08:05:23;;;;;;;2.50;2.30;;;16.50;1.00;;;;;;2612312;54;20154;-61
2024/02/18 08:07:48;;;;;;;2.77;2.20;;;16.50;1.00;;;;;;2611474;54;20154;-62
2024/02/18 08:10:14;;;;;;;2.70;2.50;;;16.50;1.00;;;;;;2612349;54;20261;-62
2024/02/18 08:12:40;;;;;;;2.93;2.73;;;16.50;1.00;;;;;;2611983;47;20166;-61
2024/02/18 08:15:06;;;;;;;2.40;2.20;;;16.50;1.00;;;;;;2611947;54;20209;-63
2024/02/18 08:17:34;;;;;;;2.67;2.47;;;16.50;1.00;;;;;;2611881;54;20208;-62
2024/02/18 08:20:00;;;;;;;2.60;2.40;;;16.50;1.00;;;;;;2611576;54;20483;-61
2024/02/18 08:22:26;;;;;;;2.70;2.37;;;16.50;1.00;;;;;;2612423;54;20471;-61
2024/02/18 08:24:52;;;;;;;2.70;2.43;;;16.50;1.00;;;;;;2612120;39;21065;-64
2024/02/18 08:27:17;;;;;;;2.27;2.07;;;16.50;1.00;;;;;;2612204;54;20177;-64
2024/02/18 08:29:43;;;;;;;2.67;2.47;;;16.50;1.00;;;;;;2611877;54;20257;-64
2024/02/18 08:32:08;;;;;;;2.80;2.60;;;16.50;1.00;;;;;;2612374;54;20188;-63
2024/02/18 08:34:34;;;;;;;2.70;2.50;;;16.50;1.00;;;;;;2612143;54;20724;-64
2024/02/18 08:37:00;;;;;;;2.43;2.17;;;16.50;1.00;;;;;;2611056;47;20170;-64
2024/02/18 08:39:25;;;;;;;2.80;2.23;;;16.50;1.00;;;;;;2611972;54;20156;-63
2024/02/18 08:41:51;;;;;;;2.70;2.50;;;16.50;1.00;;;;;;2611353;54;20159;-63
2024/02/18 08:44:17;;;;;;;2.17;2.00;;;16.50;1.00;;;;;;2612106;39;20612;-63
2024/02/18 08:46:45;;;;;;;2.33;2.13;;;16.50;1.00;;;;;;2612314;39;20812;-64
2024/02/18 08:49:11;;;;;;;2.57;2.37;;;16.50;1.00;;;;;;2612705;54;20423;-62
2024/02/18 08:51:39;;;;;;;2.67;2.33;;;16.50;1.00;;;;;;2611594;54;20434;-63
2024/02/18 08:54:06;;;;;;;3.50;2.53;;;16.50;1.00;;;;;;2612503;39;20904;-63
2024/02/18 08:56:32;;;;;;;2.27;2.03;;;16.50;1.00;;;;;;2611217;39;20814;-64
2024/02/18 08:58:58;;;;;;;2.93;2.67;;;16.50;1.00;;;;;;2612036;54;20502;-64
2024/02/18 09:01:23;;;;;;;1.90;1.80;;;16.50;1.00;;;;;;2611950;54;20151;-63
2024/02/18 09:03:49;;;;;;;2.87;2.60;;;16.50;1.00;;;;;;2611894;54;20177;-64
2024/02/18 09:06:15;;;;;;;2.43;2.03;;;16.50;1.00;;;;;;2611023;54;20164;-63
2024/02/18 09:08:42;;;;;;;2.03;1.80;;;16.50;1.00;;;;;;2611012;54;20151;-64
2024/02/18 09:11:07;;;;;;;3.53;2.50;;;16.50;1.00;;;;;;2611492;54;20251;-64
2024/02/18 09:13:33;;;;;;;2.80;2.23;;;16.50;1.00;;;;;;2612180;47;20423;-64
2024/02/18 09:15:59;;;;;;;2.67;2.47;;;16.50;1.00;;;;;;2611917;39;20612;-62
2024/02/18 09:18:24;;;;;;;2.10;2.00;;;16.50;1.00;;;;;;2612048;54;20166;-63
2024/02/18 09:20:50;;;;;;;2.90;2.00;;;16.50;1.00;;;;;;2612028;54;20184;-63
2024/02/18 09:23:16;;;;;;;2.23;2.03;;;16.50;1.00;;;;;;2611914;51;20171;-64
2024/02/18 09:25:42;;;;;;;2.37;2.17;;;16.50;1.00;;;;;;2611886;39;20404;-64
2024/02/18 09:28:08;;;;;;;4.20;2.63;;;16.60;1.00;;;;;;2612727;54;20431;-64
2024/02/18 09:30:35;;;;;;;2.80;2.60;;;16.50;1.00;;;;;;2612602;54;20560;-63
2024/02/18 09:33:01;;;;;;;2.43;2.23;;;16.50;1.00;;;;;;2612941;54;20411;-63
2024/02/18 09:35:27;;;;;;;2.67;2.47;;;16.50;1.00;;;;;;2612619;54;20514;-63
2024/02/18 09:37:53;;;;;;;4.07;2.40;;;16.60;1.00;;;;;;2611665;51;20410;-64
2024/02/18 09:40:19;;;;;;;3.80;2.50;;;16.50;1.00;;;;;;2613160;54;20967;-63
2024/02/18 09:42:48;;;;;;;2.87;2.37;;;16.50;1.00;;;;;;2612347;54;20151;-65
2024/02/18 09:45:15;;;;;;;3.03;2.10;;;16.50;1.00;;;;;;2612714;39;20507;-61
2024/02/18 09:47:43;;;;;;;2.97;2.33;;;16.50;1.00;;;;;;2612174;54;20483;-61
2024/02/18 09:50:14;;;;;;;3.00;2.70;;;16.50;1.00;;;;;;2612790;54;20424;-61
2024/02/18 09:52:41;;;;;;;2.77;2.40;;;16.50;1.00;;;;;;2612227;54;20392;-61
2024/02/18 09:55:09;;;;;;;2.40;2.20;;;16.50;1.00;;;;;;2612370;39;20838;-61
2024/02/18 09:57:35;;;;;;;2.40;2.20;;;16.50;1.00;;;;;;2612464;54;20427;-61
2024/02/18 10:00:01;;;;;;;2.60;2.40;;;16.50;1.00;;;;;;2612345;54;20419;-61
2024/02/18 10:02:28;;;;;;;3.30;2.90;;;16.60;1.00;;;;;;2612309;39;20545;-60
2024/02/18 10:04:54;;;;;;;2.70;2.50;;;16.50;1.00;;;;;;2611635;47;21027;-59
2024/02/18 10:07:19;;;;;;;2.90;2.70;;;16.50;1.00;;;;;;2612930;54;20410;-60
2024/02/18 10:09:45;;;;;;;3.03;2.73;;;16.60;1.00;;;;;;2612008;54;20139;-59
2024/02/18 10:12:11;;;;;;;2.47;2.20;;;16.50;1.00;;;;;;2612333;54;20158;-58
2024/02/18 10:14:37;;;;;;;3.23;2.93;;;16.50;1.00;;;;;;2612713;47;20183;-59
2024/02/18 10:17:03;;;;;;;2.60;2.40;;;16.50;1.00;;;;;;2611432;47;20416;-59
2024/02/18 10:19:29;;;;;;;2.40;2.20;;;16.50;1.00;;;;;;2612511;54;20172;-59
2024/02/18 10:21:54;;;;;;;2.03;1.90;;;16.50;1.00;;;;;;2612209;54;21217;-59
2024/02/18 10:24:26;;;;;;;2.80;2.60;;;16.50;1.00;;;;;;2612604;54;20423;-59
2024/02/18 10:26:55;;;;;;;2.57;2.37;;;16.50;1.00;;;;;;2612064;54;20184;-59
2024/02/18 10:29:21;;;;;;;2.50;2.30;;;16.50;1.00;;;;;;2612511;54;20446;-59
2024/02/18 10:31:47;;;;;;;3.10;2.90;;;16.50;1.00;;;;;;2613021;47;20427;-59
2024/02/18 10:34:12;;;;;;;2.60;2.40;;;16.50;1.00;;;;;;2611774;54;20274;-58
2024/02/18 10:36:46;;;;;;;2.40;2.20;;;16.50;1.00;;;;;;2612643;54;20154;-59
2024/02/18 10:39:16;;;;;;;3.03;2.33;;;16.50;1.00;;;;;;2612381;54;20157;-59
2024/02/18 10:42:17;;;;;;;2.50;2.30;;;16.50;1.00;;;;;;2612800;50;20466;-58
2024/02/18 10:44:44;;;;;;;2.40;2.20;;;16.50;1.00;;;;;;2610575;47;20435;-59
2024/02/18 10:47:15;;;;;;;2.30;2.10;;;16.50;1.00;;;;;;2611991;54;20426;-59
2024/02/18 10:49:48;;;;;;;3.13;2.17;;;16.50;1.00;;;;;;2613456;39;20819;-59
2024/02/18 10:52:33;;;;;;;2.37;2.17;;;16.50;1.00;;;;;;2612185;54;20408;-59
2024/02/18 10:55:03;;;;;;;2.30;2.20;;;16.50;1.00;;;;;;2611977;54;20423;-60
2024/02/18 10:57:41;;;;;;;2.40;2.20;;;16.50;1.00;;;;;;2612170;54;20426;-59
2024/02/18 11:00:10;;;;;;;2.37;2.17;;;16.50;1.00;;;;;;2612453;54;20416;-59
2024/02/18 11:02:54;;;;;;;2.00;1.90;;;16.50;1.00;;;;;;2612409;54;20473;-60
2024/02/18 11:05:21;;;;;;;2.47;2.27;;;16.50;1.00;;;;;;2612149;54;20423;-59
2024/02/18 11:07:50;;;;;;;2.90;2.30;;;16.50;1.00;;;;;;2611579;54;20939;-60
2024/02/18 11:10:16;;;;;;;2.20;2.00;;;16.50;1.00;;;;;;2612243;54;20906;-60
2024/02/18 11:12:45;;;;;;;2.73;2.53;;;16.50;1.00;;;;;;2612563;54;20509;-59
2024/02/18 11:15:11;;;;;;;2.30;2.10;;;16.50;1.00;;;;;;2612575;54;20442;-59
2024/02/18 11:17:40;;;;;;;2.73;2.20;;;16.50;1.00;;;;;;2611974;54;20783;-59
2024/02/18 11:20:09;;;;;;;2.20;2.00;;;16.50;1.00;;;;;;2612834;54;20430;-59
2024/02/18 11:22:35;;;;;;;2.40;2.20;;;16.50;1.00;;;;;;2612342;47;20431;-59
2024/02/18 11:25:05;;;;;;;3.73;2.77;;;16.50;1.00;;;;;;2612279;47;20410;-59
2024/02/18 11:27:36;;;;;;;2.63;2.20;;;16.50;1.00;;;;;;2612398;54;20412;-59
2024/02/18 11:30:04;;;;;;;2.53;2.33;;;16.50;1.00;;;;;;2612407;54;20407;-58
2024/02/18 11:32:30;;;;;;;2.30;2.10;;;16.60;1.00;;;;;;2611826;39;20952;-59
2024/02/18 11:35:05;;;;;;;2.20;2.00;;;16.50;1.00;;;;;;2612524;54;20412;-59
2024/02/18 11:37:33;;;;;;;3.10;2.87;;;16.50;1.00;;;;;;2612077;47;20409;-59
2024/02/18 11:40:03;;;;;;;2.33;2.17;;;16.60;1.00;;;;;;2612008;54;20439;-59
2024/02/18 11:42:29;;;;;;;2.43;2.23;;;16.60;1.00;;;;;;2611391;54;20463;-59
2024/02/18 11:45:05;;;;;;;2.33;2.13;;;16.50;1.00;;;;;;2611778;50;20408;-58
2024/02/18 11:47:32;;;;;;;2.63;2.00;;;16.50;1.00;;;;;;2611642;47;20194;-59
2024/02/18 11:49:58;;;;;;;3.20;2.90;;;16.50;1.00;;;;;;2612004;47;20436;-59
2024/02/18 11:52:23;;;;;;;1.87;1.77;;;16.50;1.00;;;;;;2612014;47;20539;-59
2024/02/18 11:54:50;;;;;;;2.57;2.37;;;16.60;1.00;;;;;;2611867;54;20150;-61
2024/02/18 11:57:15;;;;;;;2.43;2.23;;;16.60;1.00;;;;;;2611337;54;20165;-61
2024/02/18 11:59:41;;;;;;;2.60;2.40;;;16.50;1.00;;;;;;2611848;54;20401;-61
2024/02/18 12:02:07;;;;;;;2.13;1.93;;;16.50;1.00;;;;;;2612322;54;20672;-61
2024/02/18 12:04:34;;;;;;;2.83;2.47;;;16.50;1.00;;;;;;2612210;47;20683;-65
2024/02/18 12:07:01;;;;;;;2.10;1.90;;;16.60;1.00;;;;;;2611491;54;20158;-65
2024/02/18 12:09:27;;;;;;;2.80;2.57;;;16.50;1.00;;;;;;2611801;54;20396;-65
2024/02/18 12:11:53;;;;;;;2.60;2.40;;;16.60;1.00;;;;;;2611956;54;20408;-65
2024/02/18 12:14:20;;;;;;;2.10;1.90;;;16.60;1.00;;;;;;2612023;54;20420;-65
2024/02/18 12:16:50;;;;;;;2.23;2.13;;;16.60;1.00;;;;;;2611710;39;20718;-65
2024/02/18 12:19:18;;;;;;;4.93;3.00;;;16.50;1.00;;;;;;2611569;54;20436;-65
2024/02/18 12:21:54;;;;;;;2.03;1.83;;;16.50;1.00;;;;;;2612046;54;20491;-65
2024/02/18 12:24:20;;;;;;;2.43;2.17;;;16.60;1.00;;;;;;2611963;54;20399;-63
2024/02/18 12:26:46;;;;;;;2.83;2.40;;;16.60;1.00;;;;;;2611641;54;20400;-64
2024/02/18 12:29:12;;;;;;;2.20;2.00;;;16.50;1.00;;;;;;2612241;54;20414;-63
2024/02/18 12:31:41;;;;;;;2.17;2.07;;;16.60;1.00;;;;;;2612230;54;20447;-63
2024/02/18 12:34:07;;;;;;;2.10;2.00;;;16.50;1.00;;;;;;2611933;47;20162;-63
2024/02/18 12:36:33;;;;;;;2.50;2.07;;;16.60;1.00;;;;;;2612109;54;20970;-64
2024/02/18 12:38:59;;;;;;;2.30;2.10;;;16.50;1.00;;;;;;2612571;54;20452;-63
2024/02/18 12:41:25;;;;;;;2.40;2.20;;;16.60;1.00;;;;;;2611830;47;20169;-63
2024/02/18 12:43:50;;;;;;;2.60;1.67;;;16.60;1.00;;;;;;2612844;31;20691;-63
2024/02/18 12:46:16;;;;;;;2.10;1.90;;;16.50;1.00;;;;;;2610700;47;20464;-63
2024/02/18 12:48:42;;;;;;;2.27;2.07;;;16.50;1.00;;;;;;2612699;39;20434;-63
2024/02/18 12:51:12;;;;;;;2.30;2.10;;;16.60;1.00;;;;;;2612151;39;20592;-63
2024/02/18 12:53:38;;;;;;;2.70;2.23;;;16.50;1.00;;;;;;2611064;47;20167;-64